createdAt,value
2023-04-07T00:02:07.529Z,1.50
2023-04-07T00:04:37.553Z,1.49
2023-04-07T00:07:06.001Z,1.47
2023-04-07T00:09:34.305Z,1.47
2023-04-07T00:12:02.968Z,1.42
2023-04-07T00:14:31.250Z,1.41
2023-04-07T00:17:02.507Z,1.36
2023-04-07T00:19:30.845Z,1.23
2023-04-07T00:22:00.888Z,1.14
2023-04-07T00:24:34.391Z,1.30
2023-04-07T00:27:03.530Z,1.25
2023-04-07T00:29:31.850Z,1.24
2023-04-07T00:32:00.503Z,1.11
2023-04-07T00:34:28.956Z,1.19
2023-04-07T00:36:57.711Z,1.19
2023-04-07T00:39:28.334Z,1.16
2023-04-07T00:41:56.686Z,1.08
2023-04-07T00:44:25.810Z,1.10
2023-04-07T00:46:54.276Z,1.05
2023-04-07T00:49:23.158Z,1.02
2023-04-07T00:51:51.480Z,1.01
2023-04-07T00:54:20.317Z,0.99
2023-04-07T00:56:50.513Z,0.74
2023-04-07T00:59:19.041Z,0.96
2023-04-07T01:01:55.365Z,0.97
2023-04-07T01:04:33.190Z,0.87
2023-04-07T01:07:07.388Z,0.93
2023-04-07T01:09:42.502Z,0.53
2023-04-07T01:12:21.332Z,0.84
2023-04-07T01:14:55.704Z,0.85
2023-04-07T01:17:28.443Z,0.54
2023-04-07T01:20:01.186Z,0.74
2023-04-07T01:22:41.594Z,0.90
2023-04-07T01:25:28.880Z,1.02
2023-04-07T01:28:32.269Z,1.07
2023-04-07T01:31:03.727Z,1.11
2023-04-07T01:33:35.451Z,0.91
2023-04-07T01:36:06.863Z,1.04
2023-04-07T01:38:35.429Z,1.09
2023-04-07T01:41:04.840Z,1.17
2023-04-07T01:43:34.714Z,1.24
2023-04-07T01:46:06.324Z,1.31
2023-04-07T01:48:36.592Z,1.37
2023-04-07T01:51:07.140Z,1.11
2023-04-07T01:53:37.992Z,1.54
2023-04-07T01:56:07.089Z,1.61
2023-04-07T01:58:35.511Z,1.67
2023-04-07T02:01:05.762Z,1.64
2023-04-07T02:03:40.976Z,1.79
2023-04-07T02:06:11.572Z,1.87
2023-04-07T02:08:43.910Z,1.90
2023-04-07T02:11:14.285Z,1.95
2023-04-07T02:13:45.158Z,2.02
2023-04-07T02:16:15.899Z,2.06
2023-04-07T02:18:47.134Z,2.00
2023-04-07T02:21:16.850Z,1.84
2023-04-07T02:23:45.529Z,2.14
2023-04-07T02:26:13.839Z,2.17
2023-04-07T02:28:42.524Z,2.20
2023-04-07T02:31:13.779Z,2.22
2023-04-07T02:33:44.181Z,1.94
2023-04-07T02:36:12.490Z,2.01
2023-04-07T02:38:40.863Z,1.74
2023-04-07T02:41:09.548Z,1.96
2023-04-07T02:43:37.910Z,2.22
2023-04-07T02:46:06.227Z,2.27
2023-04-07T02:48:35.235Z,2.26
2023-04-07T02:51:05.197Z,2.29
2023-04-07T02:53:33.544Z,2.30
2023-04-07T02:56:01.806Z,2.28
2023-04-07T02:58:30.097Z,2.30
2023-04-07T03:00:58.537Z,2.31
2023-04-07T03:03:27.667Z,1.85
2023-04-07T03:05:56.248Z,2.36
2023-04-07T03:08:26.442Z,2.39
2023-04-07T03:10:54.783Z,2.42
2023-04-07T03:13:23.137Z,2.44
2023-04-07T03:15:51.518Z,2.26
2023-04-07T03:18:19.803Z,2.31
2023-04-07T03:20:50.263Z,2.18
2023-04-07T03:23:18.574Z,2.49
2023-04-07T03:25:48.738Z,2.49
2023-04-07T03:28:17.230Z,2.50
2023-04-07T03:30:45.690Z,2.49
2023-04-07T03:33:14.108Z,2.47
2023-04-07T03:35:42.554Z,2.50
2023-04-07T03:38:11.275Z,2.49
2023-04-07T03:40:40.039Z,2.48
2023-04-07T03:43:14.296Z,2.50
2023-04-07T03:45:42.985Z,2.49
2023-04-07T03:48:12.265Z,2.49
2023-04-07T03:50:41.506Z,2.48
2023-04-07T03:53:09.869Z,2.48
2023-04-07T03:55:38.566Z,2.40
2023-04-07T03:58:07.127Z,2.45
2023-04-07T04:00:36.987Z,2.52
2023-04-07T04:03:05.876Z,2.46
2023-04-07T04:05:34.282Z,2.41
2023-04-07T04:08:02.620Z,2.18
2023-04-07T04:10:31.189Z,2.32
2023-04-07T04:13:00.959Z,2.01
2023-04-07T04:15:29.352Z,2.27
2023-04-07T04:17:59.209Z,2.27
2023-04-07T04:20:27.539Z,1.88
2023-04-07T04:22:55.967Z,2.27
2023-04-07T04:25:24.506Z,2.28
2023-04-07T04:27:52.831Z,2.30
2023-04-07T04:30:21.157Z,2.32
2023-04-07T04:32:49.788Z,2.21
2023-04-07T04:35:20.135Z,2.34
2023-04-07T04:37:48.508Z,2.34
2023-04-07T04:40:16.883Z,2.33
2023-04-07T04:42:45.680Z,2.26
2023-04-07T04:45:14.032Z,2.12
2023-04-07T04:47:44.110Z,1.98
2023-04-07T04:50:13.110Z,1.84
2023-04-07T04:52:43.941Z,1.24
2023-04-07T04:55:14.485Z,1.64
2023-04-07T04:57:42.986Z,1.73
2023-04-07T05:00:12.323Z,1.48
2023-04-07T05:02:40.921Z,1.60
2023-04-07T05:05:10.112Z,1.50
2023-04-07T05:07:40.491Z,1.41
2023-04-07T05:10:11.188Z,1.29
2023-04-07T05:12:39.513Z,1.20
2023-04-07T05:15:09.069Z,1.19
2023-04-07T05:17:37.508Z,0.72
2023-04-07T05:20:06.840Z,0.75
2023-04-07T05:22:35.097Z,1.06
2023-04-07T05:25:03.572Z,0.81
2023-04-07T05:27:33.369Z,1.09
2023-04-07T05:30:01.797Z,1.15
2023-04-07T05:32:30.628Z,1.18
2023-04-07T05:34:59.166Z,1.09
2023-04-07T05:37:27.746Z,0.61
2023-04-07T05:39:56.721Z,0.96
2023-04-07T05:42:25.196Z,1.16
2023-04-07T05:44:54.946Z,1.16
2023-04-07T05:47:23.344Z,1.24
2023-04-07T05:49:51.958Z,1.27
2023-04-07T05:52:20.300Z,1.29
2023-04-07T05:54:48.589Z,1.29
2023-04-07T05:57:17.278Z,1.42
2023-04-07T05:59:46.012Z,1.33
2023-04-07T06:02:16.293Z,1.57
2023-04-07T06:04:44.722Z,1.58
2023-04-07T06:07:13.085Z,1.64
2023-04-07T06:09:42.762Z,1.69
2023-04-07T06:12:12.496Z,1.75
2023-04-07T06:14:40.928Z,1.46
2023-04-07T06:17:09.995Z,1.92
2023-04-07T06:19:40.122Z,2.03
2023-04-07T06:22:08.464Z,2.00
2023-04-07T06:24:36.825Z,2.17
2023-04-07T06:27:05.348Z,2.27
2023-04-07T06:29:34.790Z,2.05
2023-04-07T06:32:03.154Z,2.42
2023-04-07T06:34:31.508Z,2.32
2023-04-07T06:37:01.909Z,2.54
2023-04-07T06:39:30.188Z,2.60
2023-04-07T06:41:58.576Z,2.55
2023-04-07T06:44:27.084Z,2.74
2023-04-07T06:46:55.704Z,2.81
2023-04-07T06:49:24.187Z,2.86
2023-04-07T06:51:52.629Z,2.14
2023-04-07T06:54:22.505Z,2.97
2023-04-07T06:56:52.271Z,3.05
2023-04-07T06:59:21.889Z,3.10
2023-04-07T07:01:50.602Z,3.16
2023-04-07T07:04:19.370Z,3.22
2023-04-07T07:06:47.901Z,3.29
2023-04-07T07:09:16.326Z,3.38
2023-04-07T07:11:46.234Z,3.44
2023-04-07T07:14:14.576Z,3.50
2023-04-07T07:16:43.009Z,3.56
2023-04-07T07:19:11.462Z,3.61
2023-04-07T07:21:39.779Z,3.34
2023-04-07T07:24:08.478Z,3.63
2023-04-07T07:26:36.821Z,3.63
2023-04-07T07:29:06.850Z,3.76
2023-04-07T07:31:35.477Z,4.01
2023-04-07T07:34:03.835Z,4.05
2023-04-07T07:36:32.495Z,4.10
2023-04-07T07:39:00.795Z,3.82
2023-04-07T07:41:29.489Z,4.45
2023-04-07T07:43:57.769Z,4.40
2023-04-07T07:46:27.947Z,4.07
2023-04-07T07:48:56.776Z,4.56
2023-04-07T07:51:25.850Z,4.57
2023-04-07T07:53:54.530Z,4.63
2023-04-07T07:56:24.081Z,4.69
2023-04-07T07:58:52.434Z,4.78
2023-04-07T08:01:20.931Z,4.79
2023-04-07T08:03:51.034Z,4.88
2023-04-07T08:06:19.741Z,5.04
2023-04-07T08:08:48.498Z,5.00
2023-04-07T08:11:17.458Z,5.28
2023-04-07T08:13:46.953Z,5.04
2023-04-07T08:16:15.617Z,5.21
2023-04-07T08:18:44.024Z,5.29
2023-04-07T08:21:14.020Z,5.33
2023-04-07T08:23:42.762Z,5.39
2023-04-07T08:26:11.335Z,4.38
2023-04-07T08:28:39.648Z,5.61
2023-04-07T08:31:08.669Z,5.77
2023-04-07T08:33:37.327Z,5.82
2023-04-07T08:36:06.680Z,5.82
2023-04-07T08:38:36.789Z,5.85
2023-04-07T08:41:09.823Z,6.00
2023-04-07T08:43:39.102Z,6.05
2023-04-07T08:46:10.775Z,5.82
2023-04-07T08:48:40.513Z,6.10
2023-04-07T08:51:10.468Z,6.11
2023-04-07T08:53:45.128Z,5.96
2023-04-07T08:56:14.012Z,6.26
2023-04-07T08:58:43.250Z,6.27
2023-04-07T09:01:12.824Z,6.31
2023-04-07T09:03:41.910Z,6.47
2023-04-07T09:06:11.600Z,6.10
2023-04-07T09:08:41.345Z,6.53
2023-04-07T09:11:09.717Z,6.56
2023-04-07T09:13:38.104Z,6.60
2023-04-07T09:16:06.831Z,6.69
2023-04-07T09:18:35.921Z,6.80
2023-04-07T09:21:05.755Z,6.82
2023-04-07T09:23:35.930Z,6.88
2023-04-07T09:29:00.814Z,7.07
2023-04-07T09:31:48.443Z,7.20
2023-04-07T09:34:27.131Z,7.27
2023-04-07T09:36:55.802Z,7.38
2023-04-07T09:39:24.464Z,7.45
2023-04-07T09:41:53.667Z,7.55
2023-04-07T09:44:24.469Z,7.73
2023-04-07T09:46:54.471Z,7.78
2023-04-07T09:49:23.236Z,7.89
2023-04-07T09:51:56.518Z,7.98
2023-04-07T09:54:36.099Z,8.05
2023-04-07T09:57:05.770Z,8.17
2023-04-07T09:59:36.704Z,8.27
2023-04-07T10:02:06.282Z,8.38
2023-04-07T10:04:34.926Z,8.42
2023-04-07T10:07:03.776Z,8.54
2023-04-07T10:09:32.984Z,8.44
2023-04-07T10:12:01.514Z,8.75
2023-04-07T10:14:32.196Z,8.89
2023-04-07T10:17:03.116Z,8.99
2023-04-07T10:19:34.236Z,9.18
2023-04-07T10:22:05.872Z,9.16
2023-04-07T10:24:53.165Z,9.26
2023-04-07T10:27:25.571Z,9.40
2023-04-07T10:29:54.505Z,9.49
2023-04-07T10:32:27.222Z,9.60
2023-04-07T10:35:02.455Z,9.67
2023-04-07T10:37:31.268Z,9.68
2023-04-07T10:40:35.832Z,9.78
2023-04-07T10:43:03.919Z,9.54
2023-04-07T10:45:54.668Z,9.69
2023-04-07T10:48:24.677Z,9.89
2023-04-07T10:51:19.024Z,9.87
2023-04-07T10:54:21.535Z,9.68
2023-04-07T10:57:13.126Z,9.77
2023-04-07T10:59:47.231Z,9.70
2023-04-07T11:02:35.506Z,9.78
2023-04-07T11:05:05.857Z,9.85
2023-04-07T11:07:52.298Z,9.96
2023-04-07T11:10:22.236Z,10.02
2023-04-07T11:13:01.647Z,10.16
2023-04-07T11:15:30.270Z,10.23
2023-04-07T11:18:17.213Z,10.30
2023-04-07T11:20:49.758Z,10.53
2023-04-07T11:23:19.690Z,10.59
2023-04-07T11:25:53.946Z,10.81
2023-04-07T11:28:22.261Z,10.91
2023-04-07T11:30:52.915Z,10.88
2023-04-07T11:33:22.604Z,10.82
2023-04-07T11:35:55.717Z,10.75
2023-04-07T11:38:27.571Z,10.84
2023-04-07T11:40:56.824Z,10.80
2023-04-07T11:43:27.187Z,10.90
2023-04-07T11:46:06.625Z,10.89
2023-04-07T11:48:36.982Z,11.17
2023-04-07T11:51:07.800Z,11.20
2023-04-07T11:53:38.487Z,11.18
2023-04-07T11:56:10.224Z,11.03
2023-04-07T11:58:38.992Z,11.07
2023-04-07T12:01:09.311Z,11.11
2023-04-07T12:03:39.188Z,11.28
2023-04-07T12:06:10.069Z,11.35
2023-04-07T12:08:42.544Z,11.55
2023-04-07T12:11:11.232Z,11.60
2023-04-07T12:13:39.816Z,11.79
2023-04-07T12:16:08.394Z,11.70
2023-04-07T12:18:36.744Z,11.80
2023-04-07T12:21:05.625Z,11.82
2023-04-07T12:23:35.684Z,11.78
2023-04-07T12:26:04.324Z,11.79
2023-04-07T12:28:32.595Z,11.69
2023-04-07T12:31:00.957Z,11.78
2023-04-07T12:33:29.556Z,11.77
2023-04-07T12:35:58.521Z,11.62
2023-04-07T12:38:27.166Z,11.68
2023-04-07T12:41:03.295Z,11.41
2023-04-07T12:43:31.854Z,11.44
2023-04-07T12:46:00.375Z,11.24
2023-04-07T12:48:28.751Z,11.40
2023-04-07T12:50:57.105Z,11.59
2023-04-07T12:53:25.785Z,11.57
2023-04-07T12:55:54.158Z,11.67
2023-04-07T12:58:24.806Z,11.90
2023-04-07T13:00:53.641Z,12.09
2023-04-07T13:03:22.616Z,12.16
2023-04-07T13:05:51.624Z,12.16
2023-04-07T13:08:19.869Z,11.84
2023-04-07T13:10:48.201Z,11.99
2023-04-07T13:13:16.710Z,12.07
2023-04-07T13:15:46.715Z,11.79
2023-04-07T13:18:15.017Z,12.05
2023-04-07T13:20:45.350Z,12.25
2023-04-07T13:23:19.211Z,12.25
2023-04-07T13:25:47.881Z,12.16
2023-04-07T13:28:18.477Z,12.15
2023-04-07T13:30:48.269Z,12.04
2023-04-07T13:33:16.726Z,11.42
2023-04-07T13:35:45.021Z,11.39
2023-04-07T13:38:13.397Z,11.53
2023-04-07T13:40:41.662Z,11.50
2023-04-07T13:43:11.773Z,11.43
2023-04-07T13:45:40.149Z,11.89
2023-04-07T13:48:10.275Z,11.96
2023-04-07T13:50:39.098Z,11.88
2023-04-07T13:53:07.512Z,12.13
2023-04-07T13:55:36.005Z,12.09
2023-04-07T13:58:04.416Z,12.12
2023-04-07T14:00:33.240Z,12.35
2023-04-07T14:03:01.740Z,12.51
2023-04-07T14:05:31.715Z,12.59
2023-04-07T14:08:00.165Z,12.39
2023-04-07T14:10:29.403Z,12.26
2023-04-07T14:12:57.756Z,12.32
2023-04-07T14:15:26.545Z,12.36
2023-04-07T14:17:55.303Z,12.41
2023-04-07T14:20:25.353Z,12.48
2023-04-07T14:22:56.380Z,12.36
2023-04-07T14:25:24.730Z,12.58
2023-04-07T14:27:52.997Z,12.75
2023-04-07T14:30:21.531Z,12.97
2023-04-07T14:32:50.264Z,13.08
2023-04-07T14:35:19.071Z,12.73
2023-04-07T14:37:47.647Z,13.18
2023-04-07T14:40:17.332Z,12.88
2023-04-07T14:42:45.711Z,13.20
2023-04-07T14:45:14.140Z,13.18
2023-04-07T14:47:42.741Z,13.05
2023-04-07T14:50:11.915Z,13.06
2023-04-07T14:52:40.541Z,13.08
2023-04-07T14:55:09.668Z,12.75
2023-04-07T14:57:39.616Z,13.01
2023-04-07T15:00:09.420Z,12.79
2023-04-07T15:02:38.353Z,12.29
2023-04-07T15:05:07.727Z,12.23
2023-04-07T15:07:36.504Z,12.17
2023-04-07T15:10:05.094Z,12.33
2023-04-07T15:12:33.545Z,12.32
2023-04-07T15:15:03.933Z,12.48
2023-04-07T15:17:43.327Z,12.33
2023-04-07T15:20:13.420Z,12.40
2023-04-07T15:22:41.970Z,12.17
2023-04-07T15:25:10.397Z,12.18
2023-04-07T15:27:38.662Z,11.99
2023-04-07T15:30:09.949Z,11.54
2023-04-07T15:32:38.447Z,11.52
2023-04-07T15:35:08.216Z,11.39
2023-04-07T15:37:38.507Z,11.40
2023-04-07T15:40:08.191Z,11.20
2023-04-07T15:42:41.649Z,11.36
2023-04-07T15:45:13.600Z,11.24
2023-04-07T15:47:41.948Z,11.11
2023-04-07T15:50:11.895Z,10.98
2023-04-07T15:52:40.166Z,10.85
2023-04-07T15:55:09.314Z,10.73
2023-04-07T15:57:37.634Z,10.60
2023-04-07T16:00:06.764Z,10.46
2023-04-07T16:02:36.648Z,10.43
2023-04-07T16:05:05.365Z,10.53
2023-04-07T16:07:33.696Z,10.53
2023-04-07T16:10:02.273Z,10.59
2023-04-07T16:12:30.548Z,10.23
2023-04-07T16:14:58.933Z,10.29
2023-04-07T16:17:28.559Z,9.95
2023-04-07T16:19:58.345Z,10.08
2023-04-07T16:22:27.307Z,10.03
2023-04-07T16:24:55.682Z,9.70
2023-04-07T16:27:24.312Z,9.80
2023-04-07T16:29:52.563Z,9.72
2023-04-07T16:32:21.038Z,9.82
2023-04-07T16:34:49.476Z,9.87
2023-04-07T16:37:19.238Z,9.40
2023-04-07T16:39:47.624Z,9.37
2023-04-07T16:42:16.166Z,9.44
2023-04-07T16:44:44.492Z,9.34
2023-04-07T16:47:12.789Z,9.31
2023-04-07T16:49:41.389Z,9.38
2023-04-07T16:52:10.233Z,9.21
2023-04-07T16:54:40.117Z,8.94
2023-04-07T16:57:08.441Z,8.50
2023-04-07T16:59:36.822Z,9.06
2023-04-07T17:02:11.089Z,8.99
2023-04-07T17:04:40.226Z,9.00
2023-04-07T17:07:09.403Z,8.88
2023-04-07T17:09:40.217Z,8.89
2023-04-07T17:12:08.650Z,8.87
2023-04-07T17:14:37.206Z,8.63
2023-04-07T17:17:05.526Z,8.55
2023-04-07T17:19:33.857Z,8.57
2023-04-07T17:22:02.141Z,8.42
2023-04-07T17:24:30.419Z,8.48
2023-04-07T17:27:00.273Z,8.39
2023-04-07T17:29:31.445Z,8.21
2023-04-07T17:32:00.296Z,8.20
2023-04-07T17:34:28.740Z,8.17
2023-04-07T17:36:57.158Z,8.12
2023-04-07T17:39:25.797Z,8.11
2023-04-07T17:41:54.152Z,8.06
2023-04-07T17:44:24.278Z,8.05
2023-04-07T17:46:52.692Z,7.95
2023-04-07T17:49:21.896Z,7.78
2023-04-07T17:51:50.221Z,7.72
2023-04-07T17:54:19.304Z,7.80
2023-04-07T17:56:47.621Z,7.73
2023-04-07T17:59:16.006Z,7.56
2023-04-07T18:01:45.837Z,7.57
2023-04-07T18:04:15.104Z,7.56
2023-04-07T18:06:44.229Z,7.47
2023-04-07T18:09:12.600Z,7.44
2023-04-07T18:11:40.994Z,7.41
2023-04-07T18:14:09.299Z,7.38
2023-04-07T18:16:37.762Z,7.37
2023-04-07T18:19:07.629Z,7.32
2023-04-07T18:21:36.364Z,7.35
2023-04-07T18:24:04.813Z,7.29
2023-04-07T18:26:33.205Z,7.21
2023-04-07T18:29:01.729Z,7.12
2023-04-07T18:31:30.133Z,7.06
2023-04-07T18:33:58.845Z,6.98
2023-04-07T18:36:28.599Z,6.97
2023-04-07T18:38:56.852Z,6.88
2023-04-07T18:41:25.201Z,6.85
2023-04-07T18:43:53.539Z,6.56
2023-04-07T18:46:22.169Z,6.71
2023-04-07T18:48:50.542Z,6.63
2023-04-07T18:51:18.831Z,6.60
2023-04-07T18:53:48.962Z,6.47
2023-04-07T18:56:17.563Z,6.61
2023-04-07T18:58:46.092Z,6.56
2023-04-07T19:01:14.590Z,6.45
2023-04-07T19:03:43.158Z,6.36
2023-04-07T19:06:15.117Z,6.30
2023-04-07T19:08:43.940Z,6.12
2023-04-07T19:11:13.722Z,6.12
2023-04-07T19:13:42.581Z,6.03
2023-04-07T19:16:11.368Z,5.94
2023-04-07T19:18:39.723Z,5.88
2023-04-07T19:21:09.237Z,5.82
2023-04-07T19:23:38.832Z,5.78
2023-04-07T19:26:07.401Z,5.76
2023-04-07T19:28:37.480Z,5.74
2023-04-07T19:31:07.387Z,5.66
2023-04-07T19:33:35.715Z,5.60
2023-04-07T19:36:04.356Z,5.50
2023-04-07T19:38:33.374Z,5.50
2023-04-07T19:41:01.797Z,5.48
2023-04-07T19:43:30.105Z,5.45
2023-04-07T19:46:00.189Z,5.45
2023-04-07T19:48:28.633Z,5.40
2023-04-07T19:50:57.227Z,5.21
2023-04-07T19:53:26.311Z,5.26
2023-04-07T19:55:54.712Z,5.24
2023-04-07T19:58:23.575Z,5.20
2023-04-07T20:00:52.518Z,5.21
2023-04-07T20:03:22.886Z,4.97
2023-04-07T20:05:52.949Z,5.19
2023-04-07T20:08:21.558Z,5.14
2023-04-07T20:10:52.536Z,5.08
2023-04-07T20:13:20.947Z,5.01
2023-04-07T20:15:49.918Z,4.49
2023-04-07T20:18:18.724Z,4.87
2023-04-07T20:20:48.500Z,4.84
2023-04-07T20:23:19.340Z,4.71
2023-04-07T20:25:47.762Z,4.61
2023-04-07T20:28:17.396Z,4.75
2023-04-07T20:30:45.879Z,4.76
2023-04-07T20:33:14.749Z,4.77
2023-04-07T20:35:43.354Z,4.75
2023-04-07T20:38:13.186Z,4.74
2023-04-07T20:40:41.869Z,4.71
2023-04-07T20:43:10.180Z,4.68
2023-04-07T20:45:38.488Z,4.59
2023-04-07T20:48:07.790Z,4.66
2023-04-07T20:50:36.707Z,4.67
2023-04-07T20:53:05.114Z,4.43
2023-04-07T20:55:34.877Z,4.62
2023-04-07T20:58:03.168Z,4.61
2023-04-07T21:00:31.607Z,4.57
2023-04-07T21:03:00.078Z,4.32
2023-04-07T21:05:28.753Z,4.03
2023-04-07T21:07:57.337Z,4.45
2023-04-07T21:10:25.680Z,4.45
2023-04-07T21:12:55.474Z,4.45
2023-04-07T21:15:23.822Z,4.22
2023-04-07T21:17:52.231Z,4.45
2023-04-07T21:20:21.337Z,4.41
2023-04-07T21:22:49.622Z,4.38
2023-04-07T21:25:18.223Z,4.37
2023-04-07T21:27:46.669Z,4.37
2023-04-07T21:30:16.805Z,4.39
2023-04-07T21:32:46.906Z,4.32
2023-04-07T21:35:15.522Z,4.39
2023-04-07T21:37:44.183Z,4.36
2023-04-07T21:40:13.219Z,4.27
2023-04-07T21:42:41.904Z,4.43
2023-04-07T21:45:11.906Z,4.50
2023-04-07T21:47:41.935Z,4.56
2023-04-07T21:50:11.222Z,4.61
2023-04-07T21:52:39.497Z,4.41
2023-04-07T21:55:10.136Z,4.66
2023-04-07T21:57:38.823Z,4.57
2023-04-07T22:00:09.180Z,4.68
2023-04-07T22:02:37.697Z,4.66
2023-04-07T22:05:08.113Z,4.63
2023-04-07T22:07:36.441Z,4.45
2023-04-07T22:10:05.402Z,4.63
2023-04-07T22:12:33.814Z,4.65
2023-04-07T22:15:02.074Z,4.69
2023-04-07T22:17:30.505Z,4.26
2023-04-07T22:19:58.924Z,4.78
2023-04-07T22:22:28.700Z,4.79
2023-04-07T22:24:57.045Z,4.76
2023-04-07T22:27:26.301Z,4.72
2023-04-07T22:29:54.675Z,4.72
2023-04-07T22:32:23.116Z,4.69
2023-04-07T22:34:51.759Z,4.67
2023-04-07T22:37:20.059Z,4.67
2023-04-07T22:39:49.891Z,4.68
2023-04-07T22:42:18.315Z,4.69
2023-04-07T22:44:46.700Z,4.74
2023-04-07T22:47:15.053Z,4.72
2023-04-07T22:49:43.365Z,4.50
2023-04-07T22:52:11.637Z,4.70
2023-04-07T22:54:39.963Z,4.68
2023-04-07T22:57:09.719Z,4.67
2023-04-07T22:59:38.527Z,4.65
2023-04-07T23:02:07.095Z,4.64
2023-04-07T23:04:35.531Z,4.61
2023-04-07T23:07:04.272Z,4.63
2023-04-07T23:09:32.949Z,4.59
2023-04-07T23:12:01.548Z,4.56
2023-04-07T23:14:31.323Z,4.54
2023-04-07T23:17:01.064Z,4.53
2023-04-07T23:19:29.356Z,4.55
2023-04-07T23:21:57.708Z,4.50
2023-04-07T23:24:25.987Z,4.45
2023-04-07T23:26:54.574Z,4.41
2023-04-07T23:29:23.519Z,4.39
2023-04-07T23:31:54.271Z,4.39
2023-04-07T23:34:22.832Z,4.16
2023-04-07T23:36:51.251Z,4.43
2023-04-07T23:39:19.892Z,4.29
2023-04-07T23:41:48.564Z,4.43
2023-04-07T23:44:16.953Z,4.43
2023-04-07T23:46:45.216Z,4.42
2023-04-07T23:49:15.056Z,4.41
2023-04-07T23:51:43.840Z,3.80
2023-04-07T23:54:12.559Z,4.47
2023-04-07T23:56:40.912Z,4.44
2023-04-07T23:59:09.205Z,4.37
